sensor_id;sensor_type;location;lat;lon;timestamp;P1;durP1;ratioP1;P2;durP2;ratioP2
48578;SDS011;34357;51.948;6.132;2023-10-08T00:01:14;23.80;;;6.22;;
48578;SDS011;34357;51.948;6.132;2023-10-08T00:03:44;23.75;;;6.43;;
48578;SDS011;34357;51.948;6.132;2023-10-08T00:06:23;23.52;;;6.00;;
48578;SDS011;34357;51.948;6.132;2023-10-08T00:08:49;21.50;;;5.78;;
48578;SDS011;34357;51.948;6.132;2023-10-08T00:11:16;20.77;;;5.88;;
48578;SDS011;34357;51.948;6.132;2023-10-08T00:13:42;24.50;;;6.32;;
48578;SDS011;34357;51.948;6.132;2023-10-08T00:16:12;27.65;;;6.47;;
48578;SDS011;34357;51.948;6.132;2023-10-08T00:18:43;23.05;;;6.80;;
48578;SDS011;34357;51.948;6.132;2023-10-08T00:21:19;25.80;;;5.97;;
48578;SDS011;34357;51.948;6.132;2023-10-08T00:23:58;27.67;;;6.07;;
48578;SDS011;34357;51.948;6.132;2023-10-08T00:26:24;27.92;;;7.13;;
48578;SDS011;34357;51.948;6.132;2023-10-08T00:31:45;22.20;;;6.10;;
48578;SDS011;34357;51.948;6.132;2023-10-08T00:34:13;29.95;;;7.40;;
48578;SDS011;34357;51.948;6.132;2023-10-08T00:36:42;26.30;;;6.57;;
48578;SDS011;34357;51.948;6.132;2023-10-08T00:39:09;21.42;;;6.22;;
48578;SDS011;34357;51.948;6.132;2023-10-08T00:41:42;26.70;;;6.28;;
48578;SDS011;34357;51.948;6.132;2023-10-08T00:44:09;24.20;;;6.77;;
48578;SDS011;34357;51.948;6.132;2023-10-08T00:49:14;30.92;;;7.03;;
48578;SDS011;34357;51.948;6.132;2023-10-08T00:51:47;25.20;;;7.03;;
48578;SDS011;34357;51.948;6.132;2023-10-08T00:54:32;30.42;;;7.22;;
48578;SDS011;34357;51.948;6.132;2023-10-08T00:57:05;26.45;;;6.53;;
48578;SDS011;34357;51.948;6.132;2023-10-08T00:59:32;24.55;;;7.32;;
48578;SDS011;34357;51.948;6.132;2023-10-08T01:02:07;29.55;;;6.55;;
48578;SDS011;34357;51.948;6.132;2023-10-08T01:04:39;41.03;;;8.07;;
48578;SDS011;34357;51.948;6.132;2023-10-08T01:07:09;27.35;;;6.75;;
48578;SDS011;34357;51.948;6.132;2023-10-08T01:09:41;26.52;;;6.57;;
48578;SDS011;34357;51.948;6.132;2023-10-08T01:14:40;26.27;;;7.20;;
48578;SDS011;34357;51.948;6.132;2023-10-08T01:17:09;35.83;;;8.27;;
48578;SDS011;34357;51.948;6.132;2023-10-08T01:19:39;24.90;;;6.90;;
48578;SDS011;34357;51.948;6.132;2023-10-08T01:22:07;25.65;;;6.93;;
48578;SDS011;34357;51.948;6.132;2023-10-08T01:24:42;30.58;;;7.68;;
48578;SDS011;34357;51.948;6.132;2023-10-08T01:27:08;28.70;;;7.53;;
48578;SDS011;34357;51.948;6.132;2023-10-08T01:29:37;27.23;;;7.10;;
48578;SDS011;34357;51.948;6.132;2023-10-08T01:32:04;31.13;;;7.32;;
48578;SDS011;34357;51.948;6.132;2023-10-08T01:34:35;33.95;;;7.78;;
48578;SDS011;34357;51.948;6.132;2023-10-08T01:37:02;32.75;;;7.28;;
48578;SDS011;34357;51.948;6.132;2023-10-08T01:39:35;27.77;;;7.18;;
48578;SDS011;34357;51.948;6.132;2023-10-08T01:42:01;31.02;;;7.70;;
48578;SDS011;34357;51.948;6.132;2023-10-08T01:44:28;26.27;;;6.75;;
48578;SDS011;34357;51.948;6.132;2023-10-08T01:46:56;29.05;;;7.25;;
48578;SDS011;34357;51.948;6.132;2023-10-08T01:49:23;28.77;;;8.23;;
48578;SDS011;34357;51.948;6.132;2023-10-08T01:51:57;26.80;;;7.57;;
48578;SDS011;34357;51.948;6.132;2023-10-08T01:54:23;32.00;;;7.10;;
48578;SDS011;34357;51.948;6.132;2023-10-08T01:56:51;30.75;;;7.13;;
48578;SDS011;34357;51.948;6.132;2023-10-08T01:59:17;24.98;;;7.18;;
48578;SDS011;34357;51.948;6.132;2023-10-08T02:01:43;33.40;;;7.80;;
48578;SDS011;34357;51.948;6.132;2023-10-08T02:04:10;33.42;;;8.20;;
48578;SDS011;34357;51.948;6.132;2023-10-08T02:06:37;37.80;;;8.73;;
48578;SDS011;34357;51.948;6.132;2023-10-08T02:09:07;32.00;;;7.57;;
48578;SDS011;34357;51.948;6.132;2023-10-08T02:11:48;35.08;;;8.80;;
48578;SDS011;34357;51.948;6.132;2023-10-08T02:14:21;29.98;;;8.98;;
48578;SDS011;34357;51.948;6.132;2023-10-08T02:16:48;35.03;;;9.82;;
48578;SDS011;34357;51.948;6.132;2023-10-08T02:19:14;33.47;;;9.85;;
48578;SDS011;34357;51.948;6.132;2023-10-08T02:21:44;36.53;;;10.23;;
48578;SDS011;34357;51.948;6.132;2023-10-08T02:24:12;37.90;;;10.10;;
48578;SDS011;34357;51.948;6.132;2023-10-08T02:26:38;35.50;;;9.65;;
48578;SDS011;34357;51.948;6.132;2023-10-08T02:29:05;30.23;;;8.45;;
48578;SDS011;34357;51.948;6.132;2023-10-08T02:31:37;28.92;;;8.82;;
48578;SDS011;34357;51.948;6.132;2023-10-08T02:34:05;36.42;;;9.68;;
48578;SDS011;34357;51.948;6.132;2023-10-08T02:36:37;32.58;;;9.73;;
48578;SDS011;34357;51.948;6.132;2023-10-08T02:39:05;32.15;;;9.93;;
48578;SDS011;34357;51.948;6.132;2023-10-08T02:41:51;27.05;;;9.45;;
48578;SDS011;34357;51.948;6.132;2023-10-08T02:44:18;36.78;;;9.82;;
48578;SDS011;34357;51.948;6.132;2023-10-08T02:46:46;30.27;;;9.35;;
48578;SDS011;34357;51.948;6.132;2023-10-08T02:49:13;30.25;;;9.50;;
48578;SDS011;34357;51.948;6.132;2023-10-08T02:51:45;33.50;;;9.20;;
48578;SDS011;34357;51.948;6.132;2023-10-08T02:54:12;31.60;;;8.43;;
48578;SDS011;34357;51.948;6.132;2023-10-08T02:56:46;31.10;;;8.48;;
48578;SDS011;34357;51.948;6.132;2023-10-08T02:59:17;32.05;;;9.10;;
48578;SDS011;34357;51.948;6.132;2023-10-08T03:01:46;35.78;;;9.70;;
48578;SDS011;34357;51.948;6.132;2023-10-08T03:04:15;33.70;;;10.13;;
48578;SDS011;34357;51.948;6.132;2023-10-08T03:06:47;32.17;;;9.77;;
48578;SDS011;34357;51.948;6.132;2023-10-08T03:09:20;29.02;;;9.52;;
48578;SDS011;34357;51.948;6.132;2023-10-08T03:11:51;25.52;;;8.98;;
48578;SDS011;34357;51.948;6.132;2023-10-08T03:14:18;25.67;;;9.52;;
48578;SDS011;34357;51.948;6.132;2023-10-08T03:16:51;35.78;;;9.27;;
48578;SDS011;34357;51.948;6.132;2023-10-08T03:19:18;38.03;;;9.52;;
48578;SDS011;34357;51.948;6.132;2023-10-08T03:21:48;28.85;;;9.35;;
48578;SDS011;34357;51.948;6.132;2023-10-08T03:24:22;37.47;;;9.15;;
48578;SDS011;34357;51.948;6.132;2023-10-08T03:27:14;24.65;;;8.57;;
48578;SDS011;34357;51.948;6.132;2023-10-08T03:29:46;31.98;;;9.70;;
48578;SDS011;34357;51.948;6.132;2023-10-08T03:32:14;28.83;;;9.68;;
48578;SDS011;34357;51.948;6.132;2023-10-08T03:34:47;34.50;;;9.93;;
48578;SDS011;34357;51.948;6.132;2023-10-08T03:37:15;29.60;;;9.37;;
48578;SDS011;34357;51.948;6.132;2023-10-08T03:39:48;28.55;;;9.00;;
48578;SDS011;34357;51.948;6.132;2023-10-08T03:42:25;29.52;;;9.43;;
48578;SDS011;34357;51.948;6.132;2023-10-08T03:44:59;23.90;;;8.20;;
48578;SDS011;34357;51.948;6.132;2023-10-08T03:47:35;35.03;;;8.82;;
48578;SDS011;34357;51.948;6.132;2023-10-08T03:50:04;22.00;;;8.18;;
48578;SDS011;34357;51.948;6.132;2023-10-08T03:52:31;29.13;;;9.07;;
48578;SDS011;34357;51.948;6.132;2023-10-08T03:54:56;21.30;;;9.07;;
48578;SDS011;34357;51.948;6.132;2023-10-08T03:57:41;29.05;;;9.07;;
48578;SDS011;34357;51.948;6.132;2023-10-08T04:00:10;28.48;;;8.93;;
48578;SDS011;34357;51.948;6.132;2023-10-08T04:02:57;23.48;;;9.25;;
48578;SDS011;34357;51.948;6.132;2023-10-08T04:05:26;28.60;;;9.55;;
48578;SDS011;34357;51.948;6.132;2023-10-08T04:07:53;27.98;;;9.10;;
48578;SDS011;34357;51.948;6.132;2023-10-08T04:10:25;29.40;;;8.70;;
48578;SDS011;34357;51.948;6.132;2023-10-08T04:13:04;24.40;;;8.75;;
48578;SDS011;34357;51.948;6.132;2023-10-08T04:15:34;26.08;;;9.48;;
48578;SDS011;34357;51.948;6.132;2023-10-08T04:18:06;31.90;;;9.50;;
48578;SDS011;34357;51.948;6.132;2023-10-08T04:20:32;32.13;;;9.88;;
48578;SDS011;34357;51.948;6.132;2023-10-08T04:23:02;32.50;;;10.68;;
48578;SDS011;34357;51.948;6.132;2023-10-08T04:27:56;27.00;;;10.15;;
48578;SDS011;34357;51.948;6.132;2023-10-08T04:30:25;31.67;;;10.07;;
48578;SDS011;34357;51.948;6.132;2023-10-08T04:33:04;25.00;;;8.20;;
48578;SDS011;34357;51.948;6.132;2023-10-08T04:35:36;18.15;;;7.55;;
48578;SDS011;34357;51.948;6.132;2023-10-08T04:38:13;26.15;;;7.80;;
48578;SDS011;34357;51.948;6.132;2023-10-08T04:40:44;24.08;;;8.40;;
48578;SDS011;34357;51.948;6.132;2023-10-08T04:43:17;14.50;;;6.45;;
48578;SDS011;34357;51.948;6.132;2023-10-08T04:45:53;19.58;;;6.43;;
48578;SDS011;34357;51.948;6.132;2023-10-08T04:48:19;19.58;;;7.00;;
48578;SDS011;34357;51.948;6.132;2023-10-08T04:50:46;21.45;;;6.93;;
48578;SDS011;34357;51.948;6.132;2023-10-08T04:53:24;14.30;;;5.80;;
48578;SDS011;34357;51.948;6.132;2023-10-08T04:56:03;21.05;;;5.75;;
48578;SDS011;34357;51.948;6.132;2023-10-08T04:58:38;14.30;;;6.05;;
48578;SDS011;34357;51.948;6.132;2023-10-08T05:01:12;19.27;;;5.55;;
48578;SDS011;34357;51.948;6.132;2023-10-08T05:03:55;15.18;;;5.75;;
48578;SDS011;34357;51.948;6.132;2023-10-08T05:06:28;16.13;;;6.32;;
48578;SDS011;34357;51.948;6.132;2023-10-08T05:08:58;17.67;;;6.93;;
48578;SDS011;34357;51.948;6.132;2023-10-08T05:11:24;17.77;;;6.20;;
48578;SDS011;34357;51.948;6.132;2023-10-08T05:14:01;13.98;;;6.40;;
48578;SDS011;34357;51.948;6.132;2023-10-08T05:16:31;15.70;;;6.32;;
48578;SDS011;34357;51.948;6.132;2023-10-08T05:19:25;16.50;;;5.93;;
48578;SDS011;34357;51.948;6.132;2023-10-08T05:22:11;18.55;;;5.45;;
48578;SDS011;34357;51.948;6.132;2023-10-08T05:24:53;17.05;;;5.68;;
48578;SDS011;34357;51.948;6.132;2023-10-08T05:27:42;18.67;;;5.55;;
48578;SDS011;34357;51.948;6.132;2023-10-08T05:32:42;13.25;;;4.35;;
48578;SDS011;34357;51.948;6.132;2023-10-08T05:35:31;12.25;;;4.00;;
48578;SDS011;34357;51.948;6.132;2023-10-08T05:38:04;12.75;;;4.40;;
48578;SDS011;34357;51.948;6.132;2023-10-08T05:40:48;10.45;;;3.60;;
48578;SDS011;34357;51.948;6.132;2023-10-08T05:43:24;10.68;;;3.58;;
48578;SDS011;34357;51.948;6.132;2023-10-08T05:46:11;7.75;;;3.60;;
48578;SDS011;34357;51.948;6.132;2023-10-08T05:48:53;11.82;;;4.00;;
48578;SDS011;34357;51.948;6.132;2023-10-08T05:51:31;10.75;;;4.18;;
48578;SDS011;34357;51.948;6.132;2023-10-08T05:54:17;11.55;;;4.35;;
48578;SDS011;34357;51.948;6.132;2023-10-08T05:56:53;16.65;;;4.40;;
48578;SDS011;34357;51.948;6.132;2023-10-08T06:05:07;8.30;;;3.75;;
48578;SDS011;34357;51.948;6.132;2023-10-08T06:07:51;7.63;;;3.88;;
48578;SDS011;34357;51.948;6.132;2023-10-08T06:10:22;6.95;;;3.90;;
48578;SDS011;34357;51.948;6.132;2023-10-08T06:12:57;11.45;;;4.30;;
48578;SDS011;34357;51.948;6.132;2023-10-08T06:15:47;7.38;;;4.07;;
48578;SDS011;34357;51.948;6.132;2023-10-08T06:18:20;7.57;;;4.15;;
48578;SDS011;34357;51.948;6.132;2023-10-08T06:21:01;6.97;;;3.85;;
48578;SDS011;34357;51.948;6.132;2023-10-08T06:23:34;8.30;;;4.38;;
48578;SDS011;34357;51.948;6.132;2023-10-08T06:26:04;9.80;;;4.38;;
48578;SDS011;34357;51.948;6.132;2023-10-08T06:28:42;7.57;;;4.55;;
48578;SDS011;34357;51.948;6.132;2023-10-08T06:31:09;7.22;;;4.95;;
48578;SDS011;34357;51.948;6.132;2023-10-08T06:33:42;8.27;;;4.65;;
48578;SDS011;34357;51.948;6.132;2023-10-08T06:36:09;9.57;;;5.22;;
48578;SDS011;34357;51.948;6.132;2023-10-08T06:38:39;11.10;;;5.75;;
48578;SDS011;34357;51.948;6.132;2023-10-08T06:41:06;9.85;;;5.40;;
48578;SDS011;34357;51.948;6.132;2023-10-08T06:43:35;11.32;;;5.72;;
48578;SDS011;34357;51.948;6.132;2023-10-08T06:46:02;10.45;;;5.45;;
48578;SDS011;34357;51.948;6.132;2023-10-08T06:48:32;9.05;;;5.78;;
48578;SDS011;34357;51.948;6.132;2023-10-08T06:50:59;10.30;;;5.80;;
48578;SDS011;34357;51.948;6.132;2023-10-08T06:53:35;9.80;;;5.57;;
48578;SDS011;34357;51.948;6.132;2023-10-08T06:56:03;10.30;;;6.22;;
48578;SDS011;34357;51.948;6.132;2023-10-08T06:58:30;8.18;;;6.03;;
48578;SDS011;34357;51.948;6.132;2023-10-08T07:00:59;11.63;;;7.30;;
48578;SDS011;34357;51.948;6.132;2023-10-08T07:03:30;12.82;;;7.32;;
48578;SDS011;34357;51.948;6.132;2023-10-08T07:05:56;12.95;;;8.18;;
48578;SDS011;34357;51.948;6.132;2023-10-08T07:08:23;11.73;;;7.63;;
48578;SDS011;34357;51.948;6.132;2023-10-08T07:10:53;14.32;;;8.93;;
48578;SDS011;34357;51.948;6.132;2023-10-08T07:13:21;13.80;;;8.60;;
48578;SDS011;34357;51.948;6.132;2023-10-08T07:15:48;13.88;;;8.75;;
48578;SDS011;34357;51.948;6.132;2023-10-08T07:18:15;12.88;;;7.88;;
48578;SDS011;34357;51.948;6.132;2023-10-08T07:20:47;14.05;;;7.90;;
48578;SDS011;34357;51.948;6.132;2023-10-08T07:23:19;8.93;;;7.03;;
48578;SDS011;34357;51.948;6.132;2023-10-08T07:25:56;14.00;;;7.43;;
48578;SDS011;34357;51.948;6.132;2023-10-08T07:28:47;12.55;;;6.40;;
48578;SDS011;34357;51.948;6.132;2023-10-08T07:31:20;13.43;;;6.03;;
48578;SDS011;34357;51.948;6.132;2023-10-08T07:33:48;15.82;;;5.68;;
48578;SDS011;34357;51.948;6.132;2023-10-08T07:36:40;12.73;;;6.10;;
48578;SDS011;34357;51.948;6.132;2023-10-08T07:39:08;13.65;;;6.13;;
48578;SDS011;34357;51.948;6.132;2023-10-08T07:41:47;11.23;;;5.05;;
48578;SDS011;34357;51.948;6.132;2023-10-08T07:44:13;8.88;;;4.53;;
48578;SDS011;34357;51.948;6.132;2023-10-08T07:46:39;10.52;;;4.93;;
48578;SDS011;34357;51.948;6.132;2023-10-08T07:49:04;13.23;;;4.78;;
48578;SDS011;34357;51.948;6.132;2023-10-08T07:51:30;8.23;;;4.55;;
48578;SDS011;34357;51.948;6.132;2023-10-08T07:53:56;11.43;;;4.22;;
48578;SDS011;34357;51.948;6.132;2023-10-08T07:56:22;17.75;;;4.88;;
48578;SDS011;34357;51.948;6.132;2023-10-08T07:58:49;9.52;;;4.15;;
48578;SDS011;34357;51.948;6.132;2023-10-08T08:01:15;7.95;;;3.92;;
48578;SDS011;34357;51.948;6.132;2023-10-08T08:03:41;7.88;;;3.53;;
48578;SDS011;34357;51.948;6.132;2023-10-08T08:06:07;6.47;;;3.92;;
48578;SDS011;34357;51.948;6.132;2023-10-08T08:08:37;5.88;;;4.00;;
48578;SDS011;34357;51.948;6.132;2023-10-08T08:11:04;4.85;;;3.40;;
48578;SDS011;34357;51.948;6.132;2023-10-08T08:13:40;5.80;;;3.80;;
48578;SDS011;34357;51.948;6.132;2023-10-08T08:16:13;10.52;;;4.47;;
48578;SDS011;34357;51.948;6.132;2023-10-08T08:18:43;8.05;;;4.00;;
48578;SDS011;34357;51.948;6.132;2023-10-08T08:23:43;7.15;;;3.80;;
48578;SDS011;34357;51.948;6.132;2023-10-08T08:26:13;7.15;;;3.28;;
48578;SDS011;34357;51.948;6.132;2023-10-08T08:29:01;6.25;;;3.17;;
48578;SDS011;34357;51.948;6.132;2023-10-08T08:31:30;6.72;;;2.78;;
48578;SDS011;34357;51.948;6.132;2023-10-08T08:34:01;6.55;;;3.08;;
48578;SDS011;34357;51.948;6.132;2023-10-08T08:36:39;6.32;;;3.28;;
48578;SDS011;34357;51.948;6.132;2023-10-08T08:39:11;10.15;;;3.00;;
48578;SDS011;34357;51.948;6.132;2023-10-08T08:41:54;7.88;;;2.53;;
48578;SDS011;34357;51.948;6.132;2023-10-08T08:44:27;8.75;;;2.45;;
48578;SDS011;34357;51.948;6.132;2023-10-08T08:46:58;6.15;;;2.53;;
48578;SDS011;34357;51.948;6.132;2023-10-08T08:49:29;3.78;;;1.95;;
48578;SDS011;34357;51.948;6.132;2023-10-08T08:52:04;7.20;;;2.03;;
48578;SDS011;34357;51.948;6.132;2023-10-08T08:54:30;9.30;;;1.90;;
48578;SDS011;34357;51.948;6.132;2023-10-08T08:57:00;5.43;;;2.00;;
48578;SDS011;34357;51.948;6.132;2023-10-08T08:59:30;8.02;;;2.05;;
48578;SDS011;34357;51.948;6.132;2023-10-08T09:01:56;2.65;;;1.42;;
48578;SDS011;34357;51.948;6.132;2023-10-08T09:04:31;3.78;;;1.63;;
48578;SDS011;34357;51.948;6.132;2023-10-08T09:07:04;5.57;;;1.92;;
48578;SDS011;34357;51.948;6.132;2023-10-08T09:09:31;6.57;;;1.85;;
48578;SDS011;34357;51.948;6.132;2023-10-08T09:12:03;7.30;;;2.08;;
48578;SDS011;34357;51.948;6.132;2023-10-08T09:14:30;5.03;;;1.88;;
48578;SDS011;34357;51.948;6.132;2023-10-08T09:17:00;6.30;;;2.10;;
48578;SDS011;34357;51.948;6.132;2023-10-08T09:19:29;6.05;;;1.60;;
48578;SDS011;34357;51.948;6.132;2023-10-08T09:22:05;5.45;;;1.65;;
48578;SDS011;34357;51.948;6.132;2023-10-08T09:24:32;4.53;;;1.88;;
48578;SDS011;34357;51.948;6.132;2023-10-08T09:27:05;6.07;;;1.97;;
48578;SDS011;34357;51.948;6.132;2023-10-08T09:29:35;3.22;;;2.10;;
48578;SDS011;34357;51.948;6.132;2023-10-08T09:32:05;4.13;;;2.05;;
48578;SDS011;34357;51.948;6.132;2023-10-08T09:34:31;5.28;;;1.95;;
48578;SDS011;34357;51.948;6.132;2023-10-08T09:36:58;6.45;;;2.30;;
48578;SDS011;34357;51.948;6.132;2023-10-08T09:39:29;3.42;;;2.30;;
48578;SDS011;34357;51.948;6.132;2023-10-08T09:41:59;5.80;;;2.00;;
48578;SDS011;34357;51.948;6.132;2023-10-08T09:44:29;8.25;;;3.05;;
48578;SDS011;34357;51.948;6.132;2023-10-08T09:47:08;4.95;;;2.25;;
48578;SDS011;34357;51.948;6.132;2023-10-08T09:49:41;5.85;;;2.47;;
48578;SDS011;34357;51.948;6.132;2023-10-08T09:52:10;6.03;;;2.50;;
48578;SDS011;34357;51.948;6.132;2023-10-08T09:54:42;5.93;;;2.47;;
48578;SDS011;34357;51.948;6.132;2023-10-08T09:57:10;5.65;;;2.20;;
48578;SDS011;34357;51.948;6.132;2023-10-08T09:59:36;6.25;;;2.45;;
48578;SDS011;34357;51.948;6.132;2023-10-08T10:02:06;6.95;;;2.58;;
48578;SDS011;34357;51.948;6.132;2023-10-08T10:04:35;5.43;;;2.58;;
48578;SDS011;34357;51.948;6.132;2023-10-08T10:07:09;5.68;;;2.92;;
48578;SDS011;34357;51.948;6.132;2023-10-08T10:09:42;5.40;;;2.75;;
48578;SDS011;34357;51.948;6.132;2023-10-08T10:12:12;6.32;;;2.50;;
48578;SDS011;34357;51.948;6.132;2023-10-08T10:14:43;5.18;;;2.42;;
48578;SDS011;34357;51.948;6.132;2023-10-08T10:17:24;5.00;;;2.70;;
48578;SDS011;34357;51.948;6.132;2023-10-08T10:19:56;7.78;;;2.40;;
48578;SDS011;34357;51.948;6.132;2023-10-08T10:24:56;4.82;;;2.30;;
48578;SDS011;34357;51.948;6.132;2023-10-08T10:27:22;4.18;;;2.35;;
48578;SDS011;34357;51.948;6.132;2023-10-08T10:29:49;6.55;;;2.53;;
48578;SDS011;34357;51.948;6.132;2023-10-08T10:32:15;3.97;;;2.13;;
48578;SDS011;34357;51.948;6.132;2023-10-08T10:34:42;6.68;;;2.05;;
48578;SDS011;34357;51.948;6.132;2023-10-08T10:37:08;5.53;;;2.17;;
48578;SDS011;34357;51.948;6.132;2023-10-08T10:39:50;5.63;;;1.90;;
48578;SDS011;34357;51.948;6.132;2023-10-08T10:44:53;2.70;;;1.70;;
48578;SDS011;34357;51.948;6.132;2023-10-08T10:47:21;2.97;;;1.63;;
48578;SDS011;34357;51.948;6.132;2023-10-08T10:49:48;6.32;;;2.05;;
48578;SDS011;34357;51.948;6.132;2023-10-08T10:52:24;3.15;;;1.98;;
48578;SDS011;34357;51.948;6.132;2023-10-08T10:54:59;4.38;;;1.75;;
48578;SDS011;34357;51.948;6.132;2023-10-08T10:57:50;3.05;;;1.88;;
48578;SDS011;34357;51.948;6.132;2023-10-08T11:00:36;3.35;;;2.13;;
48578;SDS011;34357;51.948;6.132;2023-10-08T11:03:03;3.38;;;2.00;;
48578;SDS011;34357;51.948;6.132;2023-10-08T11:05:35;4.03;;;2.15;;
48578;SDS011;34357;51.948;6.132;2023-10-08T11:08:04;3.88;;;1.83;;
48578;SDS011;34357;51.948;6.132;2023-10-08T11:10:33;4.82;;;2.78;;
48578;SDS011;34357;51.948;6.132;2023-10-08T11:13:05;4.68;;;2.40;;
48578;SDS011;34357;51.948;6.132;2023-10-08T11:15:39;3.00;;;2.17;;
48578;SDS011;34357;51.948;6.132;2023-10-08T11:18:09;3.03;;;2.38;;
48578;SDS011;34357;51.948;6.132;2023-10-08T11:20:35;4.70;;;2.53;;
48578;SDS011;34357;51.948;6.132;2023-10-08T11:23:05;3.13;;;2.60;;
48578;SDS011;34357;51.948;6.132;2023-10-08T11:25:54;4.50;;;2.90;;
48578;SDS011;34357;51.948;6.132;2023-10-08T11:28:21;4.88;;;2.67;;
48578;SDS011;34357;51.948;6.132;2023-10-08T11:30:47;3.50;;;2.40;;
48578;SDS011;34357;51.948;6.132;2023-10-08T11:33:16;3.63;;;2.85;;
48578;SDS011;34357;51.948;6.132;2023-10-08T11:35:55;4.30;;;2.45;;
48578;SDS011;34357;51.948;6.132;2023-10-08T11:38:24;3.97;;;2.60;;
48578;SDS011;34357;51.948;6.132;2023-10-08T11:40:50;3.83;;;1.92;;
48578;SDS011;34357;51.948;6.132;2023-10-08T11:45:50;3.30;;;2.30;;
48578;SDS011;34357;51.948;6.132;2023-10-08T11:48:17;3.30;;;2.30;;
48578;SDS011;34357;51.948;6.132;2023-10-08T11:50:51;3.42;;;2.40;;
48578;SDS011;34357;51.948;6.132;2023-10-08T11:53:17;5.10;;;2.22;;
48578;SDS011;34357;51.948;6.132;2023-10-08T11:55:44;4.45;;;2.25;;
48578;SDS011;34357;51.948;6.132;2023-10-08T11:58:13;2.72;;;1.98;;
48578;SDS011;34357;51.948;6.132;2023-10-08T12:00:43;6.75;;;2.30;;
48578;SDS011;34357;51.948;6.132;2023-10-08T12:03:10;4.32;;;2.13;;
48578;SDS011;34357;51.948;6.132;2023-10-08T12:05:37;2.92;;;2.00;;
48578;SDS011;34357;51.948;6.132;2023-10-08T12:08:12;3.25;;;2.30;;
48578;SDS011;34357;51.948;6.132;2023-10-08T12:10:45;3.05;;;1.95;;
48578;SDS011;34357;51.948;6.132;2023-10-08T12:13:11;3.63;;;2.00;;
48578;SDS011;34357;51.948;6.132;2023-10-08T12:15:37;4.10;;;1.70;;
48578;SDS011;34357;51.948;6.132;2023-10-08T12:18:03;3.40;;;1.80;;
48578;SDS011;34357;51.948;6.132;2023-10-08T12:20:49;3.28;;;1.80;;
48578;SDS011;34357;51.948;6.132;2023-10-08T12:23:16;4.18;;;1.60;;
48578;SDS011;34357;51.948;6.132;2023-10-08T12:26:02;3.40;;;1.60;;
48578;SDS011;34357;51.948;6.132;2023-10-08T12:28:28;3.33;;;1.35;;
48578;SDS011;34357;51.948;6.132;2023-10-08T12:30:54;2.95;;;1.50;;
48578;SDS011;34357;51.948;6.132;2023-10-08T12:33:23;2.30;;;1.55;;
48578;SDS011;34357;51.948;6.132;2023-10-08T12:35:51;3.20;;;1.80;;
48578;SDS011;34357;51.948;6.132;2023-10-08T12:38:21;3.20;;;1.70;;
48578;SDS011;34357;51.948;6.132;2023-10-08T12:40:47;3.20;;;1.83;;
48578;SDS011;34357;51.948;6.132;2023-10-08T12:43:21;2.60;;;1.50;;
48578;SDS011;34357;51.948;6.132;2023-10-08T12:45:52;4.40;;;1.60;;
48578;SDS011;34357;51.948;6.132;2023-10-08T12:48:20;3.00;;;1.33;;
48578;SDS011;34357;51.948;6.132;2023-10-08T12:50:47;3.40;;;1.50;;
48578;SDS011;34357;51.948;6.132;2023-10-08T12:53:23;2.63;;;1.40;;
48578;SDS011;34357;51.948;6.132;2023-10-08T12:55:59;2.90;;;1.40;;
48578;SDS011;34357;51.948;6.132;2023-10-08T12:58:30;2.00;;;1.15;;
48578;SDS011;34357;51.948;6.132;2023-10-08T13:01:09;3.63;;;1.42;;
48578;SDS011;34357;51.948;6.132;2023-10-08T13:03:39;2.45;;;1.30;;
48578;SDS011;34357;51.948;6.132;2023-10-08T13:06:12;5.28;;;1.60;;
48578;SDS011;34357;51.948;6.132;2023-10-08T13:08:51;2.90;;;1.25;;
48578;SDS011;34357;51.948;6.132;2023-10-08T13:11:18;4.50;;;1.38;;
48578;SDS011;34357;51.948;6.132;2023-10-08T13:13:57;5.80;;;1.45;;
48578;SDS011;34357;51.948;6.132;2023-10-08T13:16:24;3.22;;;1.38;;
48578;SDS011;34357;51.948;6.132;2023-10-08T13:18:51;4.28;;;1.45;;
48578;SDS011;34357;51.948;6.132;2023-10-08T13:21:17;3.75;;;1.75;;
48578;SDS011;34357;51.948;6.132;2023-10-08T13:23:50;4.43;;;2.15;;
48578;SDS011;34357;51.948;6.132;2023-10-08T13:26:22;4.03;;;1.70;;
48578;SDS011;34357;51.948;6.132;2023-10-08T13:28:49;5.13;;;1.48;;
48578;SDS011;34357;51.948;6.132;2023-10-08T13:31:16;5.95;;;1.83;;
48578;SDS011;34357;51.948;6.132;2023-10-08T13:33:44;3.25;;;1.50;;
48578;SDS011;34357;51.948;6.132;2023-10-08T13:36:14;2.53;;;1.65;;
48578;SDS011;34357;51.948;6.132;2023-10-08T13:38:41;5.38;;;1.85;;
48578;SDS011;34357;51.948;6.132;2023-10-08T13:41:08;6.20;;;1.48;;
48578;SDS011;34357;51.948;6.132;2023-10-08T13:43:49;2.80;;;1.90;;
48578;SDS011;34357;51.948;6.132;2023-10-08T13:46:24;2.95;;;1.33;;
48578;SDS011;34357;51.948;6.132;2023-10-08T13:48:50;3.30;;;1.40;;
48578;SDS011;34357;51.948;6.132;2023-10-08T13:51:20;2.83;;;1.70;;
48578;SDS011;34357;51.948;6.132;2023-10-08T13:53:51;1.95;;;1.30;;
48578;SDS011;34357;51.948;6.132;2023-10-08T13:56:28;4.85;;;1.85;;
48578;SDS011;34357;51.948;6.132;2023-10-08T13:58:57;4.75;;;1.38;;
48578;SDS011;34357;51.948;6.132;2023-10-08T14:01:40;3.25;;;1.40;;
48578;SDS011;34357;51.948;6.132;2023-10-08T14:04:16;2.55;;;1.50;;
48578;SDS011;34357;51.948;6.132;2023-10-08T14:06:45;3.65;;;1.30;;
48578;SDS011;34357;51.948;6.132;2023-10-08T14:09:17;7.80;;;1.73;;
48578;SDS011;34357;51.948;6.132;2023-10-08T14:11:48;3.27;;;1.53;;
48578;SDS011;34357;51.948;6.132;2023-10-08T14:14:18;3.92;;;1.27;;
48578;SDS011;34357;51.948;6.132;2023-10-08T14:16:45;2.90;;;1.38;;
48578;SDS011;34357;51.948;6.132;2023-10-08T14:19:17;4.00;;;1.55;;
48578;SDS011;34357;51.948;6.132;2023-10-08T14:21:48;6.78;;;1.65;;
48578;SDS011;34357;51.948;6.132;2023-10-08T14:24:25;3.30;;;1.50;;
48578;SDS011;34357;51.948;6.132;2023-10-08T14:26:54;4.75;;;1.45;;
48578;SDS011;34357;51.948;6.132;2023-10-08T14:29:22;5.82;;;1.30;;
48578;SDS011;34357;51.948;6.132;2023-10-08T14:31:52;5.45;;;1.30;;
48578;SDS011;34357;51.948;6.132;2023-10-08T14:34:21;6.13;;;1.40;;
48578;SDS011;34357;51.948;6.132;2023-10-08T14:37:08;3.10;;;1.17;;
48578;SDS011;34357;51.948;6.132;2023-10-08T14:39:53;3.70;;;1.10;;
48578;SDS011;34357;51.948;6.132;2023-10-08T14:42:37;3.38;;;1.48;;
48578;SDS011;34357;51.948;6.132;2023-10-08T14:45:21;3.72;;;1.17;;
48578;SDS011;34357;51.948;6.132;2023-10-08T14:47:54;4.75;;;1.42;;
48578;SDS011;34357;51.948;6.132;2023-10-08T14:50:21;4.93;;;1.77;;
48578;SDS011;34357;51.948;6.132;2023-10-08T14:52:48;4.53;;;1.25;;
48578;SDS011;34357;51.948;6.132;2023-10-08T14:55:14;5.13;;;1.63;;
48578;SDS011;34357;51.948;6.132;2023-10-08T14:57:41;6.72;;;1.35;;
48578;SDS011;34357;51.948;6.132;2023-10-08T15:00:07;5.95;;;1.67;;
48578;SDS011;34357;51.948;6.132;2023-10-08T15:02:35;4.22;;;1.40;;
48578;SDS011;34357;51.948;6.132;2023-10-08T15:05:03;7.35;;;1.60;;
48578;SDS011;34357;51.948;6.132;2023-10-08T15:07:35;4.57;;;1.67;;
48578;SDS011;34357;51.948;6.132;2023-10-08T15:10:01;6.22;;;1.70;;
48578;SDS011;34357;51.948;6.132;2023-10-08T15:12:27;5.28;;;1.80;;
48578;SDS011;34357;51.948;6.132;2023-10-08T15:14:53;5.30;;;1.88;;
48578;SDS011;34357;51.948;6.132;2023-10-08T15:17:19;4.38;;;1.83;;
48578;SDS011;34357;51.948;6.132;2023-10-08T15:19:46;3.90;;;1.73;;
48578;SDS011;34357;51.948;6.132;2023-10-08T15:22:12;5.65;;;2.00;;
48578;SDS011;34357;51.948;6.132;2023-10-08T15:24:38;5.65;;;1.70;;
48578;SDS011;34357;51.948;6.132;2023-10-08T15:27:05;6.97;;;1.83;;
48578;SDS011;34357;51.948;6.132;2023-10-08T15:29:31;6.57;;;2.00;;
48578;SDS011;34357;51.948;6.132;2023-10-08T15:31:58;5.47;;;1.83;;
48578;SDS011;34357;51.948;6.132;2023-10-08T15:34:24;6.05;;;2.08;;